createdAt,value
2023-03-27T00:00:13.167Z,101537.50
2023-03-27T00:02:48.784Z,101541.72
2023-03-27T00:05:22.561Z,101546.22
2023-03-27T00:07:56.062Z,101544.44
2023-03-27T00:10:29.745Z,101544.75
2023-03-27T00:13:03.478Z,101553.34
2023-03-27T00:15:37.598Z,101560.13
2023-03-27T00:18:11.787Z,101561.28
2023-03-27T00:20:44.813Z,101565.78
2023-03-27T00:23:17.489Z,101575.56
2023-03-27T00:25:51.043Z,101579.59
2023-03-27T00:28:24.159Z,101575.38
2023-03-27T00:30:58.429Z,101590.97
2023-03-27T00:33:32.618Z,101583.56
2023-03-27T00:36:06.219Z,101593.38
2023-03-27T00:38:40.148Z,101584.53
2023-03-27T00:41:13.412Z,101589.84
2023-03-27T00:43:46.176Z,101593.84
2023-03-27T00:46:31.644Z,101606.47
2023-03-27T00:49:10.899Z,101618.44
2023-03-27T00:51:48.099Z,101614.75
2023-03-27T00:54:26.444Z,101613.28
2023-03-27T00:57:03.466Z,101619.19
2023-03-27T00:59:40.746Z,101616.88
2023-03-27T01:02:14.499Z,101616.75
2023-03-27T01:04:49.209Z,101625.22
2023-03-27T01:07:25.097Z,101627.41
2023-03-27T01:09:58.870Z,101628.84
2023-03-27T01:12:40.931Z,101626.81
2023-03-27T01:15:29.342Z,101636.75
2023-03-27T01:18:16.110Z,101636.78
2023-03-27T01:21:37.534Z,101657.75
2023-03-27T01:24:46.631Z,101669.94
2023-03-27T01:27:22.562Z,101644.41
2023-03-27T01:30:06.664Z,101638.59
2023-03-27T01:33:27.464Z,101650.44
2023-03-27T01:36:28.031Z,101652.56
2023-03-27T01:39:32.311Z,101657.22
2023-03-27T01:42:11.324Z,101664.75
2023-03-27T01:44:49.304Z,101673.88
2023-03-27T01:47:31.578Z,101667.47
2023-03-27T01:50:12.024Z,101669.41
2023-03-27T01:52:52.764Z,101677.59
2023-03-27T01:55:31.368Z,101673.91
2023-03-27T01:58:08.388Z,101674.59
2023-03-27T02:00:50.824Z,101678.59
2023-03-27T02:03:30.104Z,101676.97
2023-03-27T02:06:09.586Z,101683.13
2023-03-27T02:08:48.207Z,101677.84
2023-03-27T02:11:29.213Z,101686.66
2023-03-27T02:14:04.972Z,101696.47
2023-03-27T02:16:46.261Z,101702.56
2023-03-27T02:19:24.355Z,101711.78
2023-03-27T02:21:57.176Z,101710.97
2023-03-27T02:24:31.163Z,101712.13
2023-03-27T02:27:12.770Z,101709.72
2023-03-27T02:29:55.573Z,101714.50
2023-03-27T02:32:38.289Z,101722.22
2023-03-27T02:35:24.347Z,101727.69
2023-03-27T02:38:05.349Z,101724.03
2023-03-27T02:41:08.824Z,101723.19
2023-03-27T02:44:03.006Z,101731.38
2023-03-27T02:46:55.732Z,101730.88
2023-03-27T02:49:33.114Z,101738.59
2023-03-27T02:52:12.269Z,101739.41
2023-03-27T02:54:49.764Z,101742.63
2023-03-27T02:57:27.596Z,101737.00
2023-03-27T03:00:25.496Z,101742.47
2023-03-27T03:03:17.832Z,101739.28
2023-03-27T03:05:56.053Z,101747.75
2023-03-27T03:08:30.524Z,101733.94
2023-03-27T03:11:06.053Z,101737.47
2023-03-27T03:13:39.818Z,101742.28
2023-03-27T03:16:13.827Z,101765.25
2023-03-27T03:18:46.591Z,101775.19
2023-03-27T03:21:19.950Z,101775.19
2023-03-27T03:23:58.240Z,101779.19
2023-03-27T03:26:32.893Z,101780.66
2023-03-27T03:29:05.707Z,101777.59
2023-03-27T03:31:44.913Z,101788.69
2023-03-27T03:34:22.465Z,101787.25
2023-03-27T03:36:56.347Z,101798.63
2023-03-27T03:39:35.343Z,101801.38
2023-03-27T03:42:08.279Z,101802.97
2023-03-27T03:44:41.415Z,101805.56
2023-03-27T03:47:23.614Z,101802.97
2023-03-27T03:49:56.731Z,101804.59
2023-03-27T03:52:29.642Z,101807.16
2023-03-27T03:55:04.398Z,101804.28
2023-03-27T03:57:37.501Z,101808.63
2023-03-27T04:00:16.945Z,101817.31
2023-03-27T04:02:53.312Z,101815.69
2023-03-27T04:05:26.176Z,101816.66
2023-03-27T04:08:02.759Z,101828.22
2023-03-27T04:10:54.456Z,101828.84
2023-03-27T04:13:47.588Z,101837.50
2023-03-27T04:16:30.823Z,101839.13
2023-03-27T04:19:10.579Z,101836.88
2023-03-27T04:21:47.303Z,101845.88
2023-03-27T04:24:20.845Z,101862.38
2023-03-27T04:26:55.036Z,101868.44
2023-03-27T04:29:31.757Z,101874.22
2023-03-27T04:32:05.735Z,101873.56
2023-03-27T04:34:50.229Z,101876.00
2023-03-27T04:37:42.958Z,101874.53
2023-03-27T04:40:21.169Z,101881.44
2023-03-27T04:42:55.970Z,101888.03
2023-03-27T04:45:28.942Z,101888.34
2023-03-27T04:48:01.881Z,101889.31
2023-03-27T04:50:38.395Z,101883.38
2023-03-27T04:53:11.350Z,101885.94
2023-03-27T04:55:52.673Z,101884.19
2023-03-27T04:58:26.290Z,101882.41
2023-03-27T05:01:02.441Z,101879.66
2023-03-27T05:03:54.737Z,101884.66
2023-03-27T05:06:40.744Z,101884.97
2023-03-27T05:09:18.410Z,101890.25
2023-03-27T05:11:52.200Z,101889.28
2023-03-27T05:14:25.245Z,101892.50
2023-03-27T05:17:00.747Z,101907.06
2023-03-27T05:19:33.758Z,101906.44
2023-03-27T05:22:09.373Z,101901.94
2023-03-27T05:24:43.675Z,101910.13
2023-03-27T05:27:16.291Z,101916.38
2023-03-27T05:29:52.539Z,101911.25
2023-03-27T05:32:25.563Z,101927.28
2023-03-27T05:35:11.298Z,101921.84
2023-03-27T05:37:49.929Z,101922.16
2023-03-27T05:40:34.038Z,101930.13
2023-03-27T05:43:08.303Z,101923.56
2023-03-27T05:45:42.335Z,101926.44
2023-03-27T05:48:15.809Z,101925.66
2023-03-27T05:50:48.558Z,101928.38
2023-03-27T05:53:28.690Z,101931.56
2023-03-27T05:56:25.068Z,101933.66
2023-03-27T05:59:04.146Z,101938.13
2023-03-27T06:01:40.422Z,101949.84
2023-03-27T06:04:13.606Z,101955.28
2023-03-27T06:06:58.712Z,101952.06
2023-03-27T06:09:33.003Z,101960.56
2023-03-27T06:12:25.045Z,101971.44
2023-03-27T06:15:07.392Z,101981.16
2023-03-27T06:17:50.915Z,101985.00
2023-03-27T06:20:26.935Z,101988.09
2023-03-27T06:23:01.612Z,101999.94
2023-03-27T06:25:40.065Z,101993.25
2023-03-27T06:28:15.522Z,101995.53
2023-03-27T06:30:53.526Z,102000.03
2023-03-27T06:33:32.639Z,101996.19
2023-03-27T06:36:10.179Z,102015.41
2023-03-27T06:38:46.141Z,102002.75
2023-03-27T06:41:23.169Z,102009.94
2023-03-27T06:44:11.009Z,102017.34
2023-03-27T06:47:04.094Z,102016.09
2023-03-27T06:50:12.209Z,102012.69
2023-03-27T06:52:45.070Z,102018.03
2023-03-27T06:55:40.642Z,102019.94
2023-03-27T06:58:14.883Z,102022.81
2023-03-27T07:00:49.659Z,102026.66
2023-03-27T07:03:23.976Z,102020.59
2023-03-27T07:06:25.146Z,102031.50
2023-03-27T07:09:02.764Z,102036.75
2023-03-27T07:11:36.815Z,102034.50
2023-03-27T07:14:15.645Z,102048.19
2023-03-27T07:16:48.961Z,102047.91
2023-03-27T07:19:21.672Z,102049.97
2023-03-27T07:22:03.206Z,102055.59
2023-03-27T07:24:37.740Z,102061.69
2023-03-27T07:27:10.760Z,102064.47
2023-03-27T07:29:45.953Z,102073.47
2023-03-27T07:32:36.625Z,102085.75
2023-03-27T07:35:10.693Z,102077.75
2023-03-27T07:38:03.199Z,102076.50
2023-03-27T07:40:43.987Z,102075.88
2023-03-27T07:43:35.276Z,102070.59
2023-03-27T07:46:09.946Z,102076.41
2023-03-27T07:48:42.808Z,102085.09
2023-03-27T07:51:22.678Z,102090.56
2023-03-27T07:53:58.672Z,102082.38
2023-03-27T07:56:37.437Z,102099.56
2023-03-27T07:59:31.004Z,102108.56
2023-03-27T08:02:11.987Z,102107.44
2023-03-27T08:04:46.194Z,102107.97
2023-03-27T08:07:21.529Z,102118.69
2023-03-27T08:09:57.527Z,102120.63
2023-03-27T08:12:32.456Z,102129.28
2023-03-27T08:15:09.349Z,102124.16
2023-03-27T08:17:43.483Z,102121.13
2023-03-27T08:20:18.078Z,102134.59
2023-03-27T08:22:53.940Z,102130.28
2023-03-27T08:25:45.486Z,102138.47
2023-03-27T08:28:18.716Z,102134.31
2023-03-27T08:30:51.831Z,102136.09
2023-03-27T08:33:27.582Z,102137.88
2023-03-27T08:36:00.643Z,102133.72
2023-03-27T08:38:34.162Z,102161.97
2023-03-27T08:41:31.895Z,102163.63
2023-03-27T08:44:16.669Z,102175.34
2023-03-27T08:46:53.290Z,102200.59
2023-03-27T08:49:31.761Z,102203.16
2023-03-27T08:52:26.392Z,102202.34
2023-03-27T08:55:08.368Z,102184.97
2023-03-27T08:57:51.865Z,102196.19
2023-03-27T09:00:35.421Z,102190.13
2023-03-27T09:03:23.574Z,102200.56
2023-03-27T09:06:01.555Z,102201.34
2023-03-27T09:08:47.213Z,102196.69
2023-03-27T09:11:32.132Z,102195.72
2023-03-27T09:14:15.042Z,102201.19
2023-03-27T09:16:52.424Z,102199.41
2023-03-27T09:19:48.069Z,102217.59
2023-03-27T09:22:31.118Z,102215.81
2023-03-27T09:25:24.341Z,102218.22
2023-03-27T09:28:28.393Z,102212.22
2023-03-27T09:31:20.281Z,102219.72
2023-03-27T09:33:55.189Z,102219.22
2023-03-27T09:36:28.149Z,102205.78
2023-03-27T09:39:07.975Z,102215.88
2023-03-27T09:41:45.614Z,102217.97
2023-03-27T09:44:25.432Z,102219.47
2023-03-27T09:47:05.735Z,102212.84
2023-03-27T09:49:41.270Z,102212.84
2023-03-27T09:52:36.255Z,102218.31
2023-03-27T09:55:49.602Z,102224.22
2023-03-27T09:58:35.684Z,102232.88
2023-03-27T10:01:19.921Z,102221.94
2023-03-27T10:03:59.887Z,102224.06
2023-03-27T10:06:44.588Z,102242.91
2023-03-27T10:09:34.370Z,102252.59
2023-03-27T10:12:20.733Z,102258.34
2023-03-27T10:14:55.341Z,102262.38
2023-03-27T10:17:36.747Z,102270.59
2023-03-27T10:20:18.251Z,102275.41
2023-03-27T10:22:56.369Z,102264.69
2023-03-27T10:25:37.960Z,102270.44
2023-03-27T10:28:38.975Z,102269.59
2023-03-27T10:31:30.626Z,102269.59
2023-03-27T10:34:36.697Z,102274.22
2023-03-27T10:37:30.275Z,102277.59
2023-03-27T10:40:35.886Z,102281.53
2023-03-27T10:43:29.657Z,102281.00
2023-03-27T10:46:06.353Z,102287.06
2023-03-27T10:48:51.133Z,102283.19
2023-03-27T10:51:46.111Z,102289.50
2023-03-27T10:54:35.585Z,102300.84
2023-03-27T10:57:13.738Z,102297.16
2023-03-27T10:59:50.584Z,102297.88
2023-03-27T11:02:33.773Z,102296.72
2023-03-27T11:05:11.253Z,102307.69
2023-03-27T11:07:49.689Z,102303.69
2023-03-27T11:10:27.759Z,102317.13
2023-03-27T11:13:07.413Z,102314.41
2023-03-27T11:15:46.085Z,102319.88
2023-03-27T11:18:47.093Z,102325.16
2023-03-27T11:21:24.740Z,102317.19
2023-03-27T11:24:03.903Z,102321.66
2023-03-27T11:27:05.960Z,102323.91
2023-03-27T11:29:43.829Z,102327.13
2023-03-27T11:32:28.430Z,102335.94
2023-03-27T11:35:09.038Z,102334.91
2023-03-27T11:37:52.852Z,102343.94
2023-03-27T11:40:30.105Z,102346.00
2023-03-27T11:43:11.864Z,102346.63
2023-03-27T11:46:01.715Z,102352.75
2023-03-27T11:48:56.576Z,102348.53
2023-03-27T11:51:44.781Z,102340.84
2023-03-27T11:54:32.634Z,102352.97
2023-03-27T11:57:21.017Z,102359.88
2023-03-27T12:00:16.286Z,102359.72
2023-03-27T12:03:26.214Z,102374.00
2023-03-27T12:06:09.474Z,102371.00
2023-03-27T12:09:00.993Z,102362.28
2023-03-27T12:11:46.035Z,102359.63
2023-03-27T12:14:41.163Z,102367.84
2023-03-27T12:17:27.069Z,102372.81
2023-03-27T12:20:28.789Z,102378.34
2023-03-27T12:23:26.705Z,102376.91
2023-03-27T12:26:38.005Z,102374.88
2023-03-27T12:29:37.133Z,102377.56
2023-03-27T12:32:23.535Z,102383.16
2023-03-27T12:35:03.797Z,102380.13
2023-03-27T12:37:50.890Z,102383.28
2023-03-27T12:40:31.633Z,102391.03
2023-03-27T12:43:26.524Z,102393.50
2023-03-27T12:46:17.304Z,102394.06
2023-03-27T12:48:58.641Z,102388.72
2023-03-27T12:51:43.699Z,102396.97
2023-03-27T12:54:27.063Z,102408.63
2023-03-27T12:57:07.521Z,102411.56
2023-03-27T12:59:52.062Z,102403.44
2023-03-27T13:02:58.809Z,102407.97
2023-03-27T13:05:48.836Z,102401.56
2023-03-27T13:08:45.446Z,102390.53
2023-03-27T13:11:39.488Z,102402.88
2023-03-27T13:14:37.192Z,102410.72
2023-03-27T13:17:33.710Z,102402.66
2023-03-27T13:20:19.848Z,102399.22
2023-03-27T13:23:11.417Z,102401.38
2023-03-27T13:26:06.152Z,102396.34
2023-03-27T13:28:48.436Z,102414.19
2023-03-27T13:32:00.320Z,102408.88
2023-03-27T13:35:27.210Z,102409.59
2023-03-27T13:38:00.860Z,102406.13
2023-03-27T13:41:42.271Z,102402.41
2023-03-27T13:44:29.741Z,102402.59
2023-03-27T13:47:28.252Z,102400.59
2023-03-27T13:50:17.145Z,102404.50
2023-03-27T13:53:09.390Z,102404.34
2023-03-27T13:56:24.965Z,102409.31
2023-03-27T13:59:43.136Z,102406.22
2023-03-27T14:02:47.140Z,102411.13
2023-03-27T14:05:49.031Z,102412.28
2023-03-27T14:08:39.461Z,102418.13
2023-03-27T14:11:47.300Z,102425.25
2023-03-27T14:14:53.797Z,102418.75
2023-03-27T14:17:44.160Z,102415.28
2023-03-27T14:20:23.817Z,102417.00
2023-03-27T14:23:04.899Z,102407.00
2023-03-27T14:26:00.266Z,102416.69
2023-03-27T14:28:49.435Z,102412.16
2023-03-27T14:31:28.778Z,102415.34
2023-03-27T14:34:22.336Z,102418.47
2023-03-27T14:36:56.595Z,102430.53
2023-03-27T14:39:38.960Z,102424.59
2023-03-27T14:42:23.023Z,102433.22
2023-03-27T14:45:09.838Z,102428.06
2023-03-27T14:47:43.854Z,102425.31
2023-03-27T14:50:20.937Z,102431.50
2023-03-27T14:52:56.456Z,102433.13
2023-03-27T14:55:42.551Z,102439.13
2023-03-27T14:58:35.292Z,102439.56
2023-03-27T15:01:17.094Z,102435.94
2023-03-27T15:03:55.107Z,102436.63
2023-03-27T15:06:28.304Z,102440.31
2023-03-27T15:09:15.621Z,102449.75
2023-03-27T15:12:11.240Z,102448.50
2023-03-27T15:14:44.659Z,102454.16
2023-03-27T15:17:19.294Z,102455.31
2023-03-27T15:19:57.661Z,102450.38
2023-03-27T15:22:33.810Z,102457.50
2023-03-27T15:25:12.447Z,102453.72
2023-03-27T15:27:52.814Z,102453.16
2023-03-27T15:30:30.365Z,102467.97
2023-03-27T15:33:08.345Z,102470.97
2023-03-27T15:35:45.020Z,102475.09
2023-03-27T15:38:19.148Z,102473.47
2023-03-27T15:41:01.417Z,102481.84
2023-03-27T15:43:56.586Z,102484.25
2023-03-27T15:46:35.265Z,102485.44
2023-03-27T15:49:23.985Z,102488.38
2023-03-27T15:51:57.807Z,102486.09
2023-03-27T15:54:36.121Z,102492.84
2023-03-27T15:57:16.886Z,102489.97
2023-03-27T15:59:53.609Z,102493.16
2023-03-27T16:02:28.583Z,102482.88
2023-03-27T16:05:02.014Z,102486.47
2023-03-27T16:07:46.453Z,102488.91
2023-03-27T16:10:30.974Z,102497.22
2023-03-27T16:13:06.495Z,102493.91
2023-03-27T16:15:42.539Z,102499.94
2023-03-27T16:18:19.504Z,102490.28
2023-03-27T16:20:52.393Z,102501.03
2023-03-27T16:23:25.170Z,102502.91
2023-03-27T16:25:58.082Z,102511.50
2023-03-27T16:28:31.735Z,102506.69
2023-03-27T16:31:13.549Z,102499.31
2023-03-27T16:33:47.080Z,102500.78
2023-03-27T16:36:26.340Z,102509.69
2023-03-27T16:38:59.111Z,102505.34
2023-03-27T16:41:32.152Z,102508.28
2023-03-27T16:44:05.000Z,102507.47
2023-03-27T16:46:39.365Z,102516.25
2023-03-27T16:49:13.648Z,102513.75
2023-03-27T16:51:46.311Z,102508.94
2023-03-27T16:54:19.312Z,102527.03
2023-03-27T16:56:52.300Z,102529.94
2023-03-27T16:59:25.631Z,102518.16
2023-03-27T17:01:59.694Z,102522.44
2023-03-27T17:04:32.673Z,102517.59
2023-03-27T17:07:05.924Z,102522.97
2023-03-27T17:09:38.626Z,102525.41
2023-03-27T17:12:11.572Z,102531.09
2023-03-27T17:14:44.326Z,102536.41
2023-03-27T17:17:18.382Z,102529.66
2023-03-27T17:19:51.299Z,102534.22
2023-03-27T17:22:26.370Z,102533.25
2023-03-27T17:25:03.884Z,102537.31
2023-03-27T17:27:36.925Z,102531.81
2023-03-27T17:30:10.178Z,102539.09
2023-03-27T17:32:45.864Z,102542.50
2023-03-27T17:35:18.988Z,102542.00
2023-03-27T17:37:51.990Z,102545.69
2023-03-27T17:40:25.169Z,102544.44
2023-03-27T17:42:57.919Z,102549.75
2023-03-27T17:45:30.856Z,102553.16
2023-03-27T17:48:06.960Z,102549.47
2023-03-27T17:50:40.635Z,102554.00
2023-03-27T17:53:13.438Z,102549.47
2023-03-27T17:55:49.191Z,102556.75
2023-03-27T17:58:22.141Z,102555.78
2023-03-27T18:00:55.659Z,102562.56
2023-03-27T18:03:29.844Z,102562.56
2023-03-27T18:06:04.713Z,102557.72
2023-03-27T18:08:37.757Z,102558.22
2023-03-27T18:11:12.154Z,102560.50
2023-03-27T18:13:51.227Z,102562.59
2023-03-27T18:16:24.040Z,102570.16
2023-03-27T18:18:58.049Z,102566.13
2023-03-27T18:21:30.889Z,102572.28
2023-03-27T18:24:03.487Z,102575.97
2023-03-27T18:26:36.282Z,102572.56
2023-03-27T18:29:09.100Z,102570.63
2023-03-27T18:31:42.882Z,102576.44
2023-03-27T18:34:17.233Z,102574.03
2023-03-27T18:36:52.598Z,102577.72
2023-03-27T18:39:28.126Z,102582.25
2023-03-27T18:42:02.141Z,102576.78
2023-03-27T18:44:36.368Z,102578.53
2023-03-27T18:47:09.205Z,102578.66
2023-03-27T18:49:44.337Z,102585.47
2023-03-27T18:52:17.085Z,102582.06
2023-03-27T18:54:49.820Z,102578.34
2023-03-27T18:57:22.679Z,102578.34
2023-03-27T18:59:55.858Z,102578.81
2023-03-27T19:02:29.142Z,102574.78
2023-03-27T19:05:03.714Z,102579.91
2023-03-27T19:07:36.708Z,102577.94
2023-03-27T19:10:17.509Z,102583.69
2023-03-27T19:13:10.319Z,102585.09
2023-03-27T19:16:14.540Z,102574.94
2023-03-27T19:19:08.910Z,102577.81
2023-03-27T19:22:08.260Z,102574.94
2023-03-27T19:25:04.110Z,102580.50
2023-03-27T19:27:39.161Z,102579.72
2023-03-27T19:30:21.909Z,102574.53
2023-03-27T19:32:54.892Z,102575.03
2023-03-27T19:35:27.737Z,102584.81
2023-03-27T19:38:02.847Z,102578.53
2023-03-27T19:40:35.806Z,102577.56
2023-03-27T19:43:08.355Z,102575.66
2023-03-27T19:45:43.374Z,102575.13
2023-03-27T19:48:16.162Z,102572.03
2023-03-27T19:50:49.393Z,102575.41
2023-03-27T19:53:27.177Z,102569.31
2023-03-27T19:56:01.245Z,102576.69
2023-03-27T19:58:34.043Z,102569.75
2023-03-27T20:01:07.156Z,102570.75
2023-03-27T20:03:40.293Z,102568.34
2023-03-27T20:06:18.781Z,102571.25
2023-03-27T20:08:53.315Z,102580.19
2023-03-27T20:11:27.103Z,102577.47
2023-03-27T20:14:00.412Z,102584.19
2023-03-27T20:16:33.342Z,102577.91
2023-03-27T20:19:06.958Z,102576.28
2023-03-27T20:21:42.141Z,102580.22
2023-03-27T20:24:19.904Z,102578.19
2023-03-27T20:26:59.891Z,102581.03
2023-03-27T20:29:32.488Z,102583.88
2023-03-27T20:32:08.289Z,102586.13
2023-03-27T20:34:46.260Z,102586.50
2023-03-27T20:37:20.504Z,102592.81
2023-03-27T20:40:07.404Z,102594.94
2023-03-27T20:42:47.291Z,102591.22
2023-03-27T20:45:26.850Z,102605.38
2023-03-27T20:48:04.294Z,102602.50
2023-03-27T20:50:37.920Z,102606.69
2023-03-27T20:53:13.910Z,102598.91
2023-03-27T20:56:00.051Z,102604.50
2023-03-27T20:58:34.688Z,102601.75
2023-03-27T21:01:12.009Z,102599.19
2023-03-27T21:03:49.870Z,102603.00
2023-03-27T21:06:22.740Z,102595.84
2023-03-27T21:08:56.650Z,102598.28
2023-03-27T21:11:31.044Z,102598.78
2023-03-27T21:14:09.143Z,102595.06
2023-03-27T21:16:41.900Z,102596.66
2023-03-27T21:19:14.769Z,102602.44
2023-03-27T21:21:47.444Z,102614.16
2023-03-27T21:24:22.124Z,102608.91
2023-03-27T21:26:56.353Z,102600.81
2023-03-27T21:29:29.143Z,102600.50
2023-03-27T21:32:04.938Z,102601.25
2023-03-27T21:34:37.989Z,102596.78
2023-03-27T21:37:10.913Z,102602.38
2023-03-27T21:39:43.844Z,102608.22
2023-03-27T21:42:21.495Z,102600.75
2023-03-27T21:44:56.679Z,102603.50
2023-03-27T21:47:44.689Z,102600.22
2023-03-27T21:50:20.382Z,102603.91
2023-03-27T21:52:53.103Z,102600.88
2023-03-27T21:55:25.896Z,102610.56
2023-03-27T21:57:59.952Z,102605.84
2023-03-27T22:00:33.289Z,102603.69
2023-03-27T22:03:06.841Z,102601.78
2023-03-27T22:05:40.243Z,102599.34
2023-03-27T22:08:13.267Z,102601.50
2023-03-27T22:10:45.913Z,102604.31
2023-03-27T22:13:19.990Z,102607.84
2023-03-27T22:15:52.909Z,102602.72
2023-03-27T22:18:25.527Z,102609.28
2023-03-27T22:21:00.775Z,102602.81
2023-03-27T22:23:33.551Z,102605.38
2023-03-27T22:26:07.152Z,102607.97
2023-03-27T22:28:43.302Z,102605.06
2023-03-27T22:31:16.589Z,102603.13
2023-03-27T22:33:49.544Z,102601.31
2023-03-27T22:36:22.735Z,102603.03
2023-03-27T22:38:55.684Z,102617.78
2023-03-27T22:41:28.426Z,102610.72
2023-03-27T22:44:03.768Z,102612.44
2023-03-27T22:46:37.632Z,102614.69
2023-03-27T22:49:10.662Z,102608.91
2023-03-27T22:51:43.765Z,102617.09
2023-03-27T22:54:18.502Z,102614.16
2023-03-27T22:56:55.380Z,102615.28
2023-03-27T22:59:29.547Z,102614.16
2023-03-27T23:02:02.760Z,102615.28
2023-03-27T23:04:35.883Z,102615.91
2023-03-27T23:07:09.967Z,102614.38
2023-03-27T23:09:42.801Z,102612.94
2023-03-27T23:12:15.507Z,102614.88
2023-03-27T23:14:49.614Z,102623.69
2023-03-27T23:17:22.416Z,102610.63
2023-03-27T23:19:55.366Z,102622.16
2023-03-27T23:22:28.020Z,102611.66
2023-03-27T23:25:00.984Z,102621.25
2023-03-27T23:27:33.651Z,102614.75
2023-03-27T23:30:09.428Z,102619.13
2023-03-27T23:32:48.642Z,102614.66
2023-03-27T23:35:21.399Z,102625.75
2023-03-27T23:37:56.000Z,102621.91
2023-03-27T23:40:32.021Z,102625.44
2023-03-27T23:43:06.328Z,102627.78
2023-03-27T23:45:40.600Z,102618.06
2023-03-27T23:48:16.577Z,102621.59
2023-03-27T23:50:52.561Z,102626.56
2023-03-27T23:53:29.522Z,102632.00
2023-03-27T23:56:02.544Z,102624.09
2023-03-27T23:58:37.534Z,102623.59
